Air Navigation Services of Czech Republic  
Last data update:  27.02.2021 14:52:25 UTC česká verze
   METEO Page displayed:  27.02.2021 14:53:32 UTC  
vysvětlivky
METAR EDDB 271420Z 28011KT 9999 FEW018 BKN027 07/03 Q1037 NOSIG=
METAR EDDC 271420Z 32007KT 280V350 9999 FEW012 BKN020 05/02 Q1037 TEMPO BKN013=
METAR EDDE 271420Z 26004KT 210V300 9999 FEW018 BKN024 05/01 Q1038 NOSIG=
METAR EDDF 271420Z 03013KT 360V060 9999 FEW024 08/02 Q1038 NOSIG=
METAR EDDM 271420Z 05008KT 030V100 9999 BKN040 07/M02 Q1035 NOSIG=
METAR EDDN 271420Z 36007KT 320V030 9999 FEW030 07/M01 Q1036 NOSIG=
METAR EDDP 271420Z 29007KT 9999 -DZ SCT008 OVC017 04/04 Q1038 TEMPO BKN008=
METAR EDQM 271420Z 02005KT 320V050 9999 BKN007 01/M01 Q1036=
METAR EPBY 271430Z 32014KT 9999 FEW034 08/M01 Q1033=
METAR EPGD 271430Z 32013KT 9999 FEW033 06/M01 Q1032=
METAR EPKK 271430Z 28013KT 9999 SCT030 BKN040 07/02 Q1031=
METAR EPKT 271430Z 30008KT 9999 FEW026 BKN042 06/01 Q1032=
METAR EPLL 271430Z 32011KT 290V360 9999 BKN030 08/M00 Q1031=
METAR EPPO 271430Z 30011KT 9999 SCT032 09/01 Q1034=
METAR EPRZ 271430Z 30010KT 260V330 9999 BKN030CB 08/02 Q1028=
METAR EPWA 271430Z 32016KT 9999 BKN033 07/M01 Q1029 NOSIG=
METAR EPWR 271430Z 29015KT 9999 SCT020 BKN023 07/02 Q1035=
METAR LHBP 271430Z 31019KT CAVOK 11/M01 Q1029 NOSIG=
METAR LHSM 271415Z AUTO 36016KT 9999 BKN037 08/00 Q1033 NOSIG=
METAR LKBC 271430Z AUTO 33003KT 260V060 9999 BKN024 OVC028 04/M00 Q1036=
METAR LKCV 271430Z 29013KT 9999 FEW018 BKN027 04/M00 Q1036 NOSIG RMK BLU BLU=
METAR LKKB 271430Z 29007KT 260V320 9999 SCT020 BKN026 05/M00 Q1036 NOSIG RMK BLU BLU=
METAR LKKU NIL
METAR LKKV 271430Z 29006KT 9999 OVC015 02/M01 Q1036 RMK REG QNH 1030=
METAR LKLN 271430Z AUTO VRB03KT 9999 BKN032 07/01 Q1036=
METAR LKMT 271430Z 34011KT 9999 BKN041 06/02 Q1033 NOSIG RMK REG QNH 1030=
METAR LKNA 271430Z 31013KT 9999 BKN014 OVC023 03/M01 Q1034 NOSIG RMK GRN GRN=
METAR LKPD 271430Z 26013KT 9999 FEW018 SCT034 06/01 Q1035 RMK BLACK=
METAR LKPJ 271430Z AUTO 34010KT 9999 FEW033 OVC042 08/01 Q1034=
METAR LKPR 271430Z 28008KT 9999 FEW017 BKN023 04/00 Q1036 NOSIG RMK REG QNH 1030=
METAR LKTB 271430Z 31013KT 9999 BKN046 07/01 Q1034 NOSIG RMK REG QNH 1030=
METAR LKVO NIL
METAR LOWI 271420Z 09011KT 9999 FEW030 SCT050 10/01 Q1032 NOSIG=
METAR LOWL 271420Z 04004KT 360V060 9999 SCT050 09/00 Q1035 NOSIG=
METAR LOWS 271420Z 05004KT 330V110 9999 FEW035 BKN048 07/M02 Q1035 NOSIG=
METAR LOWW 271420Z 32016KT 9999 FEW030 BKN042 07/00 Q1034 NOSIG=
METAR LZIB 271430Z 32014KT 9999 SCT032 BKN043 08/01 Q1034 NOSIG=
METAR LZKZ 271430Z 01016KT 9999 FEW045 09/M00 Q1029 NOSIG=
METAR LZMC 271400Z 33012KT 9999 BKN039 07/00 Q1034=
METAR LZPP 271430Z 32013KT 9999 FEW033 BKN039 07/01 Q1033=
METAR LZSL 271400Z 35016KT 9999 BKN043 08/M02 Q1030=
METAR LZTT 271430Z 26012KT 9999 FEW046 SCT063 06/M03 Q1028 NOSIG=
METAR LZZI 271430Z 35006KT 320V030 9999 BKN042 06/00 Q1032=